Portada
METAR-TAF:

METAR-TAF

Aeroports :

Santiago de Cuba, Cuba

latitud: 19-58N, longitud: 075-51W, altitud: 69 m

Observació

L'informe es va fer fa 54 minuts, a les 00:50 UTC
Vent 4 kt del Sud-Est, variant entre Est i Sud/Sud-Est
Temperatura 26°C
Humitat 79%
Pressió 1018 hPa
Visibilitat: 9000 m
Escasses núvols a una alçada de 2000 ft

METAR: MUCU 030050Z 13004KT 090V160 9000 FEW020 26/22 Q1018

Hora: 20:44 (01:44 UTC)

Pronòstic

L'informe es va fer fa 2 hores i 44 minuts, a les 23:00 UTC
Pronòstic vàlid del 03 a les 00 UTC al 03 a les 24 UTC
Vent 4 kt amb direcció variable
Visibilitat: 9000 m
Escasses núvols a una alçada de 2000 ft
Evolucionant progressivament
l' 03 a les 17 UTC al 03 a les 18 UTC
Vent 12 kt del Sud/Sud-Est

TAF: MUCU 022300Z 0300/0324 VRB04KT 9000 FEW020 BECMG 0317/0318 15012KT

Observacions i pronòstics meteorològics de més de 4000 aeroports (METAR i TAF).

Les estacions disponibles són els punts grocs i vermells al mapa.

Posi el ratolí al punt desitjat per veure el nom de l'estació.

Feu clic per veure les observacions i els pronòstics meteorològics.

Per canviar el mapa: feu clic els botons verds amb una creu de color negre per apropar; al botó verd amb un guió per allunyar la imatge; o en les fletxes verdes per a mapes adjacents.


METAR-TAF: